sensor_id;sensor_type;location;lat;lon;timestamp;P1;durP1;ratioP1;P2;durP2;ratioP2
18206;SDS011;9229;52.354;20.886;2024-03-06T00:00:30;86.25;;;35.25;;
18206;SDS011;9229;52.354;20.886;2024-03-06T00:05:35;106.28;;;36.85;;
18206;SDS011;9229;52.354;20.886;2024-03-06T00:10:37;92.72;;;36.72;;
18206;SDS011;9229;52.354;20.886;2024-03-06T00:15:39;86.65;;;36.28;;
18206;SDS011;9229;52.354;20.886;2024-03-06T00:20:43;85.97;;;35.88;;
18206;SDS011;9229;52.354;20.886;2024-03-06T00:25:45;91.60;;;36.80;;
18206;SDS011;9229;52.354;20.886;2024-03-06T00:30:48;92.40;;;38.30;;
18206;SDS011;9229;52.354;20.886;2024-03-06T00:35:52;86.18;;;39.38;;
18206;SDS011;9229;52.354;20.886;2024-03-06T00:40:56;84.57;;;37.35;;
18206;SDS011;9229;52.354;20.886;2024-03-06T00:45:58;85.38;;;36.67;;
18206;SDS011;9229;52.354;20.886;2024-03-06T00:51:02;86.65;;;35.20;;
18206;SDS011;9229;52.354;20.886;2024-03-06T00:56:05;72.00;;;34.70;;
18206;SDS011;9229;52.354;20.886;2024-03-06T01:01:09;75.53;;;34.60;;
18206;SDS011;9229;52.354;20.886;2024-03-06T01:06:13;72.15;;;33.97;;
18206;SDS011;9229;52.354;20.886;2024-03-06T01:11:16;69.90;;;32.55;;
18206;SDS011;9229;52.354;20.886;2024-03-06T01:16:18;70.60;;;32.15;;
18206;SDS011;9229;52.354;20.886;2024-03-06T01:21:25;60.83;;;30.85;;
18206;SDS011;9229;52.354;20.886;2024-03-06T01:26:29;66.18;;;32.10;;
18206;SDS011;9229;52.354;20.886;2024-03-06T01:31:31;62.10;;;29.75;;
18206;SDS011;9229;52.354;20.886;2024-03-06T01:36:36;61.78;;;29.55;;
18206;SDS011;9229;52.354;20.886;2024-03-06T01:41:44;59.67;;;27.98;;
18206;SDS011;9229;52.354;20.886;2024-03-06T01:46:46;58.80;;;28.83;;
18206;SDS011;9229;52.354;20.886;2024-03-06T01:51:51;49.45;;;26.05;;
18206;SDS011;9229;52.354;20.886;2024-03-06T01:56:56;61.42;;;27.85;;
18206;SDS011;9229;52.354;20.886;2024-03-06T02:02:02;50.90;;;26.98;;
18206;SDS011;9229;52.354;20.886;2024-03-06T02:07:07;49.55;;;25.83;;
18206;SDS011;9229;52.354;20.886;2024-03-06T02:12:12;50.33;;;24.48;;
18206;SDS011;9229;52.354;20.886;2024-03-06T02:17:14;51.88;;;24.63;;
18206;SDS011;9229;52.354;20.886;2024-03-06T02:22:18;52.65;;;25.23;;
18206;SDS011;9229;52.354;20.886;2024-03-06T02:27:20;49.83;;;24.67;;
18206;SDS011;9229;52.354;20.886;2024-03-06T02:32:22;41.75;;;24.05;;
18206;SDS011;9229;52.354;20.886;2024-03-06T02:37:27;45.58;;;24.08;;
18206;SDS011;9229;52.354;20.886;2024-03-06T02:42:29;47.72;;;24.10;;
18206;SDS011;9229;52.354;20.886;2024-03-06T02:47:32;44.72;;;24.10;;
18206;SDS011;9229;52.354;20.886;2024-03-06T02:52:35;38.58;;;22.63;;
18206;SDS011;9229;52.354;20.886;2024-03-06T02:57:37;46.13;;;24.52;;
18206;SDS011;9229;52.354;20.886;2024-03-06T03:02:39;43.50;;;24.23;;
18206;SDS011;9229;52.354;20.886;2024-03-06T03:07:43;43.35;;;22.40;;
18206;SDS011;9229;52.354;20.886;2024-03-06T03:12:45;46.80;;;24.08;;
18206;SDS011;9229;52.354;20.886;2024-03-06T03:17:47;50.88;;;24.83;;
18206;SDS011;9229;52.354;20.886;2024-03-06T03:22:51;43.67;;;22.38;;
18206;SDS011;9229;52.354;20.886;2024-03-06T03:27:53;48.70;;;23.02;;
18206;SDS011;9229;52.354;20.886;2024-03-06T03:32:57;45.65;;;22.05;;
18206;SDS011;9229;52.354;20.886;2024-03-06T03:38:02;45.88;;;23.48;;
18206;SDS011;9229;52.354;20.886;2024-03-06T03:43:04;55.60;;;24.13;;
18206;SDS011;9229;52.354;20.886;2024-03-06T03:48:07;43.53;;;22.63;;
18206;SDS011;9229;52.354;20.886;2024-03-06T03:53:11;53.05;;;23.85;;
18206;SDS011;9229;52.354;20.886;2024-03-06T03:58:13;45.92;;;23.27;;
18206;SDS011;9229;52.354;20.886;2024-03-06T04:03:15;42.45;;;21.60;;
18206;SDS011;9229;52.354;20.886;2024-03-06T04:08:19;43.45;;;23.65;;
18206;SDS011;9229;52.354;20.886;2024-03-06T04:13:24;40.05;;;21.65;;
18206;SDS011;9229;52.354;20.886;2024-03-06T04:18:27;47.17;;;22.77;;
18206;SDS011;9229;52.354;20.886;2024-03-06T04:23:30;45.50;;;22.85;;
18206;SDS011;9229;52.354;20.886;2024-03-06T04:28:32;46.42;;;21.00;;
18206;SDS011;9229;52.354;20.886;2024-03-06T04:33:35;41.55;;;21.55;;
18206;SDS011;9229;52.354;20.886;2024-03-06T04:38:38;51.08;;;23.55;;
18206;SDS011;9229;52.354;20.886;2024-03-06T04:43:41;50.10;;;23.17;;
18206;SDS011;9229;52.354;20.886;2024-03-06T04:48:43;44.05;;;21.25;;
18206;SDS011;9229;52.354;20.886;2024-03-06T04:53:49;44.13;;;21.80;;
18206;SDS011;9229;52.354;20.886;2024-03-06T04:58:51;43.25;;;21.35;;
18206;SDS011;9229;52.354;20.886;2024-03-06T05:03:53;46.17;;;22.48;;
18206;SDS011;9229;52.354;20.886;2024-03-06T05:08:57;43.10;;;19.90;;
18206;SDS011;9229;52.354;20.886;2024-03-06T05:13:59;36.15;;;19.05;;
18206;SDS011;9229;52.354;20.886;2024-03-06T05:19:01;44.10;;;20.08;;
18206;SDS011;9229;52.354;20.886;2024-03-06T05:24:06;36.40;;;19.90;;
18206;SDS011;9229;52.354;20.886;2024-03-06T05:29:08;40.78;;;18.40;;
18206;SDS011;9229;52.354;20.886;2024-03-06T05:34:10;38.63;;;18.75;;
18206;SDS011;9229;52.354;20.886;2024-03-06T05:39:14;34.90;;;18.55;;
18206;SDS011;9229;52.354;20.886;2024-03-06T05:44:17;36.25;;;17.98;;
18206;SDS011;9229;52.354;20.886;2024-03-06T05:49:22;37.85;;;18.15;;
18206;SDS011;9229;52.354;20.886;2024-03-06T05:54:26;37.28;;;18.25;;
18206;SDS011;9229;52.354;20.886;2024-03-06T05:59:33;37.97;;;18.38;;
18206;SDS011;9229;52.354;20.886;2024-03-06T06:04:35;32.58;;;16.85;;
18206;SDS011;9229;52.354;20.886;2024-03-06T06:09:39;31.52;;;16.30;;
18206;SDS011;9229;52.354;20.886;2024-03-06T06:14:42;32.05;;;16.73;;
18206;SDS011;9229;52.354;20.886;2024-03-06T06:19:44;32.30;;;16.77;;
18206;SDS011;9229;52.354;20.886;2024-03-06T06:24:48;30.95;;;15.55;;
18206;SDS011;9229;52.354;20.886;2024-03-06T06:29:52;36.08;;;15.88;;
18206;SDS011;9229;52.354;20.886;2024-03-06T06:34:56;27.13;;;13.30;;
18206;SDS011;9229;52.354;20.886;2024-03-06T06:40:00;26.63;;;13.50;;
18206;SDS011;9229;52.354;20.886;2024-03-06T06:45:06;23.60;;;12.95;;
18206;SDS011;9229;52.354;20.886;2024-03-06T06:50:09;31.13;;;13.10;;
18206;SDS011;9229;52.354;20.886;2024-03-06T06:55:13;28.40;;;14.30;;
18206;SDS011;9229;52.354;20.886;2024-03-06T07:00:16;24.48;;;13.50;;
18206;SDS011;9229;52.354;20.886;2024-03-06T07:05:19;26.73;;;13.55;;
18206;SDS011;9229;52.354;20.886;2024-03-06T07:10:24;24.65;;;13.63;;
18206;SDS011;9229;52.354;20.886;2024-03-06T07:15:26;26.23;;;13.38;;
18206;SDS011;9229;52.354;20.886;2024-03-06T07:20:29;25.30;;;13.63;;
18206;SDS011;9229;52.354;20.886;2024-03-06T07:25:36;30.42;;;14.07;;
18206;SDS011;9229;52.354;20.886;2024-03-06T07:30:38;25.92;;;13.98;;
18206;SDS011;9229;52.354;20.886;2024-03-06T07:35:44;27.67;;;13.65;;
18206;SDS011;9229;52.354;20.886;2024-03-06T07:40:49;29.65;;;14.82;;
18206;SDS011;9229;52.354;20.886;2024-03-06T07:45:51;25.95;;;13.10;;
18206;SDS011;9229;52.354;20.886;2024-03-06T07:50:53;27.80;;;14.50;;
18206;SDS011;9229;52.354;20.886;2024-03-06T07:55:58;27.05;;;14.25;;
18206;SDS011;9229;52.354;20.886;2024-03-06T08:01:00;28.95;;;15.40;;
18206;SDS011;9229;52.354;20.886;2024-03-06T08:06:02;31.33;;;14.95;;
18206;SDS011;9229;52.354;20.886;2024-03-06T08:11:06;27.65;;;14.50;;
18206;SDS011;9229;52.354;20.886;2024-03-06T08:16:10;27.08;;;14.90;;
18206;SDS011;9229;52.354;20.886;2024-03-06T08:21:12;27.00;;;13.82;;
18206;SDS011;9229;52.354;20.886;2024-03-06T08:26:15;26.65;;;14.48;;
18206;SDS011;9229;52.354;20.886;2024-03-06T08:31:18;25.85;;;14.32;;
18206;SDS011;9229;52.354;20.886;2024-03-06T08:36:22;30.48;;;13.45;;
18206;SDS011;9229;52.354;20.886;2024-03-06T08:41:28;29.10;;;14.52;;
18206;SDS011;9229;52.354;20.886;2024-03-06T08:46:31;26.65;;;13.95;;
18206;SDS011;9229;52.354;20.886;2024-03-06T08:51:33;26.95;;;14.30;;
18206;SDS011;9229;52.354;20.886;2024-03-06T08:56:37;26.83;;;14.20;;
18206;SDS011;9229;52.354;20.886;2024-03-06T09:01:39;21.85;;;12.98;;
18206;SDS011;9229;52.354;20.886;2024-03-06T09:06:41;28.88;;;13.82;;
18206;SDS011;9229;52.354;20.886;2024-03-06T09:11:47;22.15;;;13.93;;
18206;SDS011;9229;52.354;20.886;2024-03-06T09:16:49;26.30;;;12.88;;
18206;SDS011;9229;52.354;20.886;2024-03-06T09:21:51;24.75;;;12.43;;
18206;SDS011;9229;52.354;20.886;2024-03-06T09:26:54;22.05;;;12.82;;
18206;SDS011;9229;52.354;20.886;2024-03-06T09:31:57;26.08;;;13.90;;
18206;SDS011;9229;52.354;20.886;2024-03-06T09:37:02;31.13;;;13.43;;
18206;SDS011;9229;52.354;20.886;2024-03-06T09:42:07;27.35;;;12.55;;
18206;SDS011;9229;52.354;20.886;2024-03-06T09:47:09;22.05;;;12.70;;
18206;SDS011;9229;52.354;20.886;2024-03-06T09:52:16;25.23;;;12.98;;
18206;SDS011;9229;52.354;20.886;2024-03-06T09:57:20;30.08;;;13.02;;
18206;SDS011;9229;52.354;20.886;2024-03-06T10:02:32;23.40;;;11.80;;
18206;SDS011;9229;52.354;20.886;2024-03-06T10:07:38;26.23;;;12.27;;
18206;SDS011;9229;52.354;20.886;2024-03-06T10:12:43;20.25;;;12.23;;
18206;SDS011;9229;52.354;20.886;2024-03-06T10:17:47;23.77;;;13.30;;
18206;SDS011;9229;52.354;20.886;2024-03-06T10:22:53;20.13;;;11.50;;
18206;SDS011;9229;52.354;20.886;2024-03-06T10:28:05;22.27;;;12.18;;
18206;SDS011;9229;52.354;20.886;2024-03-06T10:33:10;24.08;;;11.40;;
18206;SDS011;9229;52.354;20.886;2024-03-06T10:38:13;17.38;;;10.40;;
18206;SDS011;9229;52.354;20.886;2024-03-06T10:43:17;18.58;;;10.05;;
18206;SDS011;9229;52.354;20.886;2024-03-06T10:48:21;18.77;;;9.93;;
18206;SDS011;9229;52.354;20.886;2024-03-06T10:53:24;18.65;;;9.20;;
18206;SDS011;9229;52.354;20.886;2024-03-06T10:58:29;14.07;;;8.43;;
18206;SDS011;9229;52.354;20.886;2024-03-06T11:03:34;14.52;;;8.75;;
18206;SDS011;9229;52.354;20.886;2024-03-06T11:08:37;13.35;;;7.90;;
18206;SDS011;9229;52.354;20.886;2024-03-06T11:13:41;13.07;;;7.75;;
18206;SDS011;9229;52.354;20.886;2024-03-06T11:18:43;13.05;;;7.85;;
18206;SDS011;9229;52.354;20.886;2024-03-06T11:29:18;10.52;;;7.25;;
18206;SDS011;9229;52.354;20.886;2024-03-06T11:34:21;9.88;;;6.32;;
18206;SDS011;9229;52.354;20.886;2024-03-06T11:39:27;9.88;;;6.97;;
18206;SDS011;9229;52.354;20.886;2024-03-06T11:44:32;9.30;;;7.35;;
18206;SDS011;9229;52.354;20.886;2024-03-06T11:49:37;13.25;;;7.40;;
18206;SDS011;9229;52.354;20.886;2024-03-06T11:54:41;12.75;;;7.38;;
18206;SDS011;9229;52.354;20.886;2024-03-06T11:59:44;9.48;;;6.57;;
18206;SDS011;9229;52.354;20.886;2024-03-06T12:04:46;9.93;;;6.57;;
18206;SDS011;9229;52.354;20.886;2024-03-06T12:09:49;10.38;;;7.53;;
18206;SDS011;9229;52.354;20.886;2024-03-06T12:14:59;7.25;;;6.47;;
18206;SDS011;9229;52.354;20.886;2024-03-06T12:20:09;9.35;;;6.43;;
18206;SDS011;9229;52.354;20.886;2024-03-06T12:25:17;8.48;;;6.70;;
18206;SDS011;9229;52.354;20.886;2024-03-06T12:30:22;12.35;;;6.53;;
18206;SDS011;9229;52.354;20.886;2024-03-06T12:35:25;11.38;;;5.80;;
18206;SDS011;9229;52.354;20.886;2024-03-06T12:40:27;8.15;;;6.18;;
18206;SDS011;9229;52.354;20.886;2024-03-06T12:45:31;9.55;;;6.75;;
18206;SDS011;9229;52.354;20.886;2024-03-06T12:50:33;7.07;;;6.20;;
18206;SDS011;9229;52.354;20.886;2024-03-06T12:55:36;6.45;;;5.85;;
18206;SDS011;9229;52.354;20.886;2024-03-06T13:00:39;7.95;;;5.80;;
18206;SDS011;9229;52.354;20.886;2024-03-06T13:05:41;10.95;;;5.95;;
18206;SDS011;9229;52.354;20.886;2024-03-06T13:10:45;7.95;;;6.20;;
18206;SDS011;9229;52.354;20.886;2024-03-06T13:15:48;10.73;;;6.20;;
18206;SDS011;9229;52.354;20.886;2024-03-06T13:20:51;7.68;;;6.07;;
18206;SDS011;9229;52.354;20.886;2024-03-06T13:25:54;10.07;;;6.43;;
18206;SDS011;9229;52.354;20.886;2024-03-06T13:31:00;8.90;;;5.90;;
18206;SDS011;9229;52.354;20.886;2024-03-06T13:36:02;7.22;;;5.93;;
18206;SDS011;9229;52.354;20.886;2024-03-06T13:41:05;7.88;;;5.75;;
18206;SDS011;9229;52.354;20.886;2024-03-06T13:46:08;11.05;;;6.38;;
18206;SDS011;9229;52.354;20.886;2024-03-06T13:51:11;7.03;;;5.63;;
18206;SDS011;9229;52.354;20.886;2024-03-06T13:56:13;9.43;;;6.18;;
18206;SDS011;9229;52.354;20.886;2024-03-06T14:01:17;9.48;;;6.35;;
18206;SDS011;9229;52.354;20.886;2024-03-06T14:06:20;8.50;;;5.97;;
18206;SDS011;9229;52.354;20.886;2024-03-06T14:11:22;7.72;;;5.80;;
18206;SDS011;9229;52.354;20.886;2024-03-06T14:16:27;11.43;;;6.50;;
18206;SDS011;9229;52.354;20.886;2024-03-06T14:21:29;9.13;;;6.40;;
18206;SDS011;9229;52.354;20.886;2024-03-06T14:26:31;10.75;;;6.38;;
18206;SDS011;9229;52.354;20.886;2024-03-06T14:31:35;18.30;;;6.47;;
18206;SDS011;9229;52.354;20.886;2024-03-06T14:36:38;11.27;;;6.13;;
18206;SDS011;9229;52.354;20.886;2024-03-06T14:41:43;11.57;;;6.22;;
18206;SDS011;9229;52.354;20.886;2024-03-06T14:46:49;11.45;;;6.55;;
18206;SDS011;9229;52.354;20.886;2024-03-06T14:51:51;13.07;;;6.93;;
18206;SDS011;9229;52.354;20.886;2024-03-06T14:56:53;11.85;;;7.03;;
18206;SDS011;9229;52.354;20.886;2024-03-06T15:01:58;14.48;;;8.13;;
18206;SDS011;9229;52.354;20.886;2024-03-06T15:07:00;9.85;;;6.80;;
18206;SDS011;9229;52.354;20.886;2024-03-06T15:12:03;15.05;;;7.47;;
18206;SDS011;9229;52.354;20.886;2024-03-06T15:17:08;11.27;;;6.95;;
18206;SDS011;9229;52.354;20.886;2024-03-06T15:22:11;11.52;;;6.72;;
18206;SDS011;9229;52.354;20.886;2024-03-06T15:27:15;12.82;;;6.60;;
18206;SDS011;9229;52.354;20.886;2024-03-06T15:32:19;7.60;;;6.28;;
18206;SDS011;9229;52.354;20.886;2024-03-06T15:37:22;11.48;;;7.20;;
18206;SDS011;9229;52.354;20.886;2024-03-06T15:42:25;11.00;;;6.78;;
18206;SDS011;9229;52.354;20.886;2024-03-06T15:47:31;9.48;;;6.43;;
18206;SDS011;9229;52.354;20.886;2024-03-06T15:52:37;11.63;;;6.38;;
18206;SDS011;9229;52.354;20.886;2024-03-06T15:57:39;10.82;;;7.03;;
18206;SDS011;9229;52.354;20.886;2024-03-06T16:02:47;10.02;;;7.10;;
18206;SDS011;9229;52.354;20.886;2024-03-06T16:07:50;25.88;;;7.72;;
18206;SDS011;9229;52.354;20.886;2024-03-06T16:12:53;15.85;;;7.45;;
18206;SDS011;9229;52.354;20.886;2024-03-06T16:18:02;13.73;;;7.60;;
18206;SDS011;9229;52.354;20.886;2024-03-06T16:23:05;14.02;;;7.97;;
18206;SDS011;9229;52.354;20.886;2024-03-06T16:28:08;19.42;;;8.48;;
18206;SDS011;9229;52.354;20.886;2024-03-06T16:33:14;16.00;;;8.30;;
18206;SDS011;9229;52.354;20.886;2024-03-06T16:38:16;16.63;;;8.57;;
18206;SDS011;9229;52.354;20.886;2024-03-06T16:43:19;15.32;;;8.57;;
18206;SDS011;9229;52.354;20.886;2024-03-06T16:48:28;16.10;;;8.57;;
18206;SDS011;9229;52.354;20.886;2024-03-06T16:53:30;21.00;;;9.63;;
18206;SDS011;9229;52.354;20.886;2024-03-06T16:58:32;19.27;;;9.50;;
18206;SDS011;9229;52.354;20.886;2024-03-06T17:03:36;17.70;;;10.55;;
18206;SDS011;9229;52.354;20.886;2024-03-06T17:08:38;22.90;;;9.82;;
18206;SDS011;9229;52.354;20.886;2024-03-06T17:13:41;17.98;;;9.77;;
18206;SDS011;9229;52.354;20.886;2024-03-06T17:18:46;17.52;;;10.68;;
18206;SDS011;9229;52.354;20.886;2024-03-06T17:23:48;21.20;;;11.35;;
18206;SDS011;9229;52.354;20.886;2024-03-06T17:28:51;18.83;;;11.45;;
18206;SDS011;9229;52.354;20.886;2024-03-06T17:33:55;28.38;;;12.25;;
18206;SDS011;9229;52.354;20.886;2024-03-06T17:38:59;24.42;;;11.70;;
18206;SDS011;9229;52.354;20.886;2024-03-06T17:44:01;22.52;;;12.07;;
18206;SDS011;9229;52.354;20.886;2024-03-06T17:49:06;22.27;;;13.55;;
18206;SDS011;9229;52.354;20.886;2024-03-06T17:54:08;24.70;;;12.98;;
18206;SDS011;9229;52.354;20.886;2024-03-06T17:59:13;25.38;;;12.93;;
18206;SDS011;9229;52.354;20.886;2024-03-06T18:04:19;23.98;;;12.45;;
18206;SDS011;9229;52.354;20.886;2024-03-06T18:09:24;26.35;;;12.52;;
18206;SDS011;9229;52.354;20.886;2024-03-06T18:14:27;23.35;;;12.65;;
18206;SDS011;9229;52.354;20.886;2024-03-06T18:19:30;22.45;;;12.68;;
18206;SDS011;9229;52.354;20.886;2024-03-06T18:24:32;23.55;;;12.60;;
18206;SDS011;9229;52.354;20.886;2024-03-06T18:29:35;23.85;;;12.25;;
18206;SDS011;9229;52.354;20.886;2024-03-06T18:34:39;25.70;;;12.68;;
18206;SDS011;9229;52.354;20.886;2024-03-06T18:39:44;27.42;;;12.82;;
18206;SDS011;9229;52.354;20.886;2024-03-06T18:44:46;26.58;;;11.55;;
18206;SDS011;9229;52.354;20.886;2024-03-06T18:49:49;26.23;;;13.00;;
18206;SDS011;9229;52.354;20.886;2024-03-06T18:54:51;34.70;;;16.58;;
18206;SDS011;9229;52.354;20.886;2024-03-06T18:59:54;37.63;;;16.35;;
18206;SDS011;9229;52.354;20.886;2024-03-06T19:04:57;34.60;;;16.40;;
18206;SDS011;9229;52.354;20.886;2024-03-06T19:10:01;33.83;;;15.20;;
18206;SDS011;9229;52.354;20.886;2024-03-06T19:15:05;35.47;;;15.05;;
18206;SDS011;9229;52.354;20.886;2024-03-06T19:20:11;32.05;;;14.10;;
18206;SDS011;9229;52.354;20.886;2024-03-06T19:25:14;30.75;;;13.07;;
18206;SDS011;9229;52.354;20.886;2024-03-06T19:30:16;24.67;;;13.27;;
18206;SDS011;9229;52.354;20.886;2024-03-06T19:35:24;32.40;;;13.57;;
18206;SDS011;9229;52.354;20.886;2024-03-06T19:40:26;30.73;;;13.70;;
18206;SDS011;9229;52.354;20.886;2024-03-06T19:45:29;29.05;;;13.63;;
18206;SDS011;9229;52.354;20.886;2024-03-06T19:50:34;34.00;;;15.45;;
18206;SDS011;9229;52.354;20.886;2024-03-06T19:55:37;30.25;;;14.50;;
18206;SDS011;9229;52.354;20.886;2024-03-06T20:00:40;39.40;;;15.65;;
18206;SDS011;9229;52.354;20.886;2024-03-06T20:05:43;28.55;;;13.90;;
18206;SDS011;9229;52.354;20.886;2024-03-06T20:10:47;31.70;;;15.57;;
18206;SDS011;9229;52.354;20.886;2024-03-06T20:15:49;29.77;;;14.75;;
18206;SDS011;9229;52.354;20.886;2024-03-06T20:20:53;32.35;;;14.80;;
18206;SDS011;9229;52.354;20.886;2024-03-06T20:25:57;27.00;;;14.38;;
18206;SDS011;9229;52.354;20.886;2024-03-06T20:31:01;28.02;;;13.70;;
18206;SDS011;9229;52.354;20.886;2024-03-06T20:36:08;29.83;;;13.95;;
18206;SDS011;9229;52.354;20.886;2024-03-06T20:41:11;24.85;;;12.82;;
18206;SDS011;9229;52.354;20.886;2024-03-06T20:46:13;30.38;;;15.85;;
18206;SDS011;9229;52.354;20.886;2024-03-06T20:51:17;33.95;;;14.15;;
18206;SDS011;9229;52.354;20.886;2024-03-06T20:56:20;29.38;;;14.60;;
18206;SDS011;9229;52.354;20.886;2024-03-06T21:01:22;31.77;;;14.93;;
18206;SDS011;9229;52.354;20.886;2024-03-06T21:06:27;26.15;;;13.95;;
18206;SDS011;9229;52.354;20.886;2024-03-06T21:11:34;27.33;;;14.52;;
18206;SDS011;9229;52.354;20.886;2024-03-06T21:16:36;25.50;;;14.07;;
18206;SDS011;9229;52.354;20.886;2024-03-06T21:21:42;24.60;;;12.73;;
18206;SDS011;9229;52.354;20.886;2024-03-06T21:26:46;28.05;;;14.07;;
18206;SDS011;9229;52.354;20.886;2024-03-06T21:31:49;23.33;;;12.07;;
18206;SDS011;9229;52.354;20.886;2024-03-06T21:36:52;24.52;;;12.48;;
18206;SDS011;9229;52.354;20.886;2024-03-06T21:41:55;31.83;;;13.43;;
18206;SDS011;9229;52.354;20.886;2024-03-06T21:46:58;25.58;;;13.40;;
18206;SDS011;9229;52.354;20.886;2024-03-06T21:52:02;25.63;;;12.63;;
18206;SDS011;9229;52.354;20.886;2024-03-06T21:57:04;26.20;;;13.35;;
18206;SDS011;9229;52.354;20.886;2024-03-06T22:02:11;23.20;;;12.70;;
18206;SDS011;9229;52.354;20.886;2024-03-06T22:07:15;24.67;;;13.77;;
18206;SDS011;9229;52.354;20.886;2024-03-06T22:12:17;24.60;;;13.82;;
18206;SDS011;9229;52.354;20.886;2024-03-06T22:17:19;25.60;;;13.40;;
18206;SDS011;9229;52.354;20.886;2024-03-06T22:22:22;26.27;;;13.38;;
18206;SDS011;9229;52.354;20.886;2024-03-06T22:27:24;22.65;;;12.25;;
18206;SDS011;9229;52.354;20.886;2024-03-06T22:32:27;22.63;;;12.70;;
18206;SDS011;9229;52.354;20.886;2024-03-06T22:37:30;22.15;;;12.25;;
18206;SDS011;9229;52.354;20.886;2024-03-06T22:42:32;23.55;;;13.70;;
18206;SDS011;9229;52.354;20.886;2024-03-06T22:47:35;28.20;;;13.18;;
18206;SDS011;9229;52.354;20.886;2024-03-06T22:52:38;30.20;;;13.57;;
18206;SDS011;9229;52.354;20.886;2024-03-06T22:57:40;29.30;;;12.48;;
18206;SDS011;9229;52.354;20.886;2024-03-06T23:02:42;27.23;;;13.25;;
18206;SDS011;9229;52.354;20.886;2024-03-06T23:07:47;25.67;;;13.35;;
18206;SDS011;9229;52.354;20.886;2024-03-06T23:12:51;20.85;;;12.55;;
18206;SDS011;9229;52.354;20.886;2024-03-06T23:17:53;22.35;;;12.27;;
18206;SDS011;9229;52.354;20.886;2024-03-06T23:22:57;22.13;;;11.88;;
18206;SDS011;9229;52.354;20.886;2024-03-06T23:28:00;29.70;;;12.65;;
18206;SDS011;9229;52.354;20.886;2024-03-06T23:33:03;25.20;;;13.45;;
18206;SDS011;9229;52.354;20.886;2024-03-06T23:38:07;30.15;;;13.00;;
18206;SDS011;9229;52.354;20.886;2024-03-06T23:43:15;25.65;;;13.23;;
18206;SDS011;9229;52.354;20.886;2024-03-06T23:48:17;22.25;;;11.68;;
18206;SDS011;9229;52.354;20.886;2024-03-06T23:53:21;23.05;;;11.68;;
18206;SDS011;9229;52.354;20.886;2024-03-06T23:58:24;22.15;;;11.93;;
